Startpagina
METAR-TAF:

METAR-TAF

Vliegvelden :

Dakar, Senegal

Luchthaven Dakar

breedte: 14-44N, lengte: 017-30W, hoogte: 27 m

Actueel weer

Dit bericht is 36 minuten geleden gemaakt, om 02:30 UTC
Wind 6 kt uit het noordwesten
Temperatuur 27°C
Vochtigheid 84%
Druk 1009 hPa
Zicht 10 km of meer
Verspreide wolken op 1000 ft

METAR: GOOY 240230Z 32006KT 9999 SCT010 27/24 Q1009 NOSIG

Tijdstip: 03:06 (03:06 UTC)

Verwachting

Dit bericht is 3 uur en het 36 minuten geleden gemaakt, om 23:30 UTC
Verwachting geldig van 24 om 00 UTC tot 25 om 06 UTC
Wind 8 kt uit het westzuidwesten
Zicht 10 km of meer
Verspreide wolken op 1000 ft
Weinig wolken op 2500 ft, Cumulonimbus.
onweer
Kans 40% :
Tijdelijke
van 23 om 03 UTC tot 23 om 08 UTC
Zicht: 4000 m
Gebroken wolken op 1000 ft
Weinig wolken op 2000 ft, Cumulonimbus.
onweer, regen
Wijzigt naar
van 24 om 08 UTC tot 24 om 10 UTC
Verspreide wolken op 1000 ft

TAF: GOOY 232330Z 2400/2506 25008KT 9999 TS SCT010 FEW025CB PROB40 TEMPO 2303/2308 4000 TSRA BKN010 FEW020CB BECMG 2408/2410 NSW SCT010

Waarnemingen en weersverwachtingen van meer dan 4000 vliegvelden (METAR en TAF).

De beschikbare stations zijn de gele en rode punten op de kaart.

Ga met uw muis naar het station om de naam te zien.

Klik dan om waarnemingen en weersverwachtingen te zien.

kaart wijzigen: klik op de groene knoppen met een zwart kruis om in te zoomen, op de groene knop met een streepje om uit te zoomen of op de groene pijlen voor aangrenzende kaarten.


METAR-TAF: